Time;durP1;ratioP1;P1;durP2;ratioP2;P2;SDS_P1;SDS_P2;PMS_P1;PMS_P2;Temp;Humidity;BMP_temperature;BMP_pressure;BME280_temperature;BME280_humidity;BME280_pressure;Samples;Min_cycle;Max_cycle;Signal;HPM_P1;HPM_P2
2022/01/07 00:00:57;;;;;;;;;7.50;7.50;;;;;3.59;88.37;101160.84;5043139;28;11435;-72
2022/01/07 00:03:26;;;;;;;;;5.50;5.50;;;;;3.54;88.96;101157.72;5062009;28;11822;-72
2022/01/07 00:05:53;;;;;;;;;9.00;7.00;;;;;3.54;89.41;101144.34;5056099;28;11425;-72
2022/01/07 00:08:20;;;;;;;;;14.00;9.50;;;;;3.57;89.37;101148.56;5043373;28;11579;-75
2022/01/07 00:10:46;;;;;;;;;8.75;8.75;;;;;3.55;89.64;101150.53;5060299;28;11493;-72
2022/01/07 00:13:13;;;;;;;;;10.25;7.00;;;;;3.53;90.00;101149.81;5057479;28;11431;-73
2022/01/07 00:15:40;;;;;;;;;11.00;7.50;;;;;3.55;90.12;101150.53;5058142;28;11433;-71
2022/01/07 00:18:08;;;;;;;;;9.00;8.00;;;;;3.49;90.27;101138.56;5054914;28;11468;-73
2022/01/07 00:20:35;;;;;;;;;7.00;6.50;;;;;3.55;90.86;101129.13;5058967;28;12622;-72
2022/01/07 00:23:02;;;;;;;;;8.25;7.25;;;;;3.52;90.96;101124.03;5058979;28;11543;-70
2022/01/07 00:25:28;;;;;;;;;7.00;6.00;;;;;3.46;91.05;101114.72;5069254;28;11456;-73
2022/01/07 00:27:55;;;;;;;;;8.25;7.25;;;;;3.47;91.51;101110.19;5057072;28;11542;-68
2022/01/07 00:30:22;;;;;;;;;11.00;10.00;;;;;3.41;91.19;101108.91;5057719;28;11546;-71
2022/01/07 00:32:48;;;;;;;;;10.75;10.00;;;;;3.42;91.46;101107.94;5055817;28;11601;-69
2022/01/07 00:35:17;;;;;;;;;3.00;3.00;;;;;3.44;91.56;101111.31;5057913;28;11481;-73
2022/01/07 00:37:44;;;;;;;;;7.00;6.00;;;;;3.45;91.89;101105.00;5074461;28;11474;-71
2022/01/07 00:40:14;;;;;;;;;7.25;7.00;;;;;3.43;91.95;101096.25;5074740;28;11408;-73
2022/01/07 00:42:41;;;;;;;;;8.00;8.00;;;;;3.39;92.44;101102.88;5058524;28;11406;-75
2022/01/07 00:45:08;;;;;;;;;5.00;5.00;;;;;3.39;92.38;101084.13;5072637;28;11445;-71
2022/01/07 00:47:35;;;;;;;;;8.25;6.00;;;;;3.38;92.45;101099.34;5045794;28;11430;-73
2022/01/07 00:50:02;;;;;;;;;6.75;6.75;;;;;3.37;92.49;101094.97;5058585;28;11429;-71
2022/01/07 00:52:28;;;;;;;;;8.00;6.00;;;;;3.37;92.40;101086.94;5057016;28;11555;-73
2022/01/07 00:54:55;;;;;;;;;9.25;7.50;;;;;3.40;92.54;101094.69;5078276;28;11463;-73
2022/01/07 00:57:22;;;;;;;;;10.25;6.50;;;;;3.40;92.76;101089.34;5044338;28;11430;-72
2022/01/07 00:59:48;;;;;;;;;8.00;8.00;;;;;3.44;92.92;101083.72;5060139;28;11456;-72
2022/01/07 01:02:15;;;;;;;;;4.25;4.25;;;;;3.40;93.05;101080.47;5077857;28;11556;-72
2022/01/07 01:04:43;;;;;;;;;8.75;8.00;;;;;3.41;93.68;101074.13;5075455;28;11426;-70
2022/01/07 01:07:14;;;;;;;;;4.00;4.00;;;;;3.40;93.35;101077.78;5042408;28;11431;-73
2022/01/07 01:09:41;;;;;;;;;6.25;4.50;;;;;3.40;92.81;101073.28;5061188;28;11562;-73
2022/01/07 01:12:09;;;;;;;;;4.50;4.50;;;;;3.42;92.90;101059.78;5062112;28;11439;-72
2022/01/07 01:14:36;;;;;;;;;2.50;2.00;;;;;3.38;92.82;101061.88;5055914;28;11545;-72
2022/01/07 01:17:04;;;;;;;;;5.50;5.50;;;;;3.39;93.19;101052.03;5058559;28;11453;-72
2022/01/07 01:19:30;;;;;;;;;8.50;8.50;;;;;3.38;93.30;101040.47;5057746;28;11465;-72
2022/01/07 01:21:57;;;;;;;;;5.75;5.00;;;;;3.40;93.30;101049.19;5064065;28;11479;-73
2022/01/07 01:24:23;;;;;;;;;6.75;5.50;;;;;3.39;93.44;101044.84;5060394;28;11504;-74
2022/01/07 01:26:50;;;;;;;;;8.00;5.00;;;;;3.43;94.26;101039.19;5045335;28;11446;-73
2022/01/07 01:29:17;;;;;;;;;9.00;8.00;;;;;3.39;94.07;101028.78;5058084;28;12335;-72
2022/01/07 01:31:44;;;;;;;;;9.25;9.25;;;;;3.33;94.09;101032.00;5057693;28;11489;-73
2022/01/07 01:34:10;;;;;;;;;7.25;7.25;;;;;3.35;94.71;101030.03;5063372;28;11450;-73
2022/01/07 01:36:37;;;;;;;;;5.25;4.75;;;;;3.40;94.98;101029.63;5060491;28;12202;-73
2022/01/07 01:39:04;;;;;;;;;10.25;10.25;;;;;3.39;94.64;101027.94;5077955;28;11589;-76
2022/01/07 01:41:30;;;;;;;;;10.25;8.50;;;;;3.40;94.86;101010.91;5049559;28;11463;-73
2022/01/07 01:43:56;;;;;;;;;9.50;8.25;;;;;3.37;94.80;101008.50;5055490;28;11529;-73
2022/01/07 01:46:23;;;;;;;;;8.00;7.00;;;;;3.44;95.22;101009.63;5057505;28;11428;-73
2022/01/07 01:48:50;;;;;;;;;9.50;6.50;;;;;3.44;95.12;100996.25;5055757;28;12319;-73
2022/01/07 01:51:16;;;;;;;;;10.75;8.50;;;;;3.45;95.57;101011.31;5055674;28;11466;-73
2022/01/07 01:53:44;;;;;;;;;11.00;10.00;;;;;3.44;95.49;100993.56;5056637;28;11492;-73
2022/01/07 01:56:10;;;;;;;;;9.50;7.75;;;;;3.45;95.33;101005.13;5056980;28;11456;-70
2022/01/07 01:58:37;;;;;;;;;9.25;9.25;;;;;3.40;95.35;101009.06;5057291;28;11444;-73
2022/01/07 02:01:03;;;;;;;;;11.50;8.75;;;;;3.44;95.63;101011.47;5057142;28;11436;-71
2022/01/07 02:03:30;;;;;;;;;12.50;10.75;;;;;3.42;95.68;101014.28;5057138;28;11492;-73
2022/01/07 02:05:57;;;;;;;;;9.25;9.25;;;;;3.43;96.20;100999.91;5056780;28;11610;-71
2022/01/07 02:08:23;;;;;;;;;12.50;10.00;;;;;3.40;96.05;100995.69;5043657;28;11419;-73
2022/01/07 02:10:51;;;;;;;;;10.50;9.00;;;;;3.35;96.03;100997.94;5074609;28;11603;-70
2022/01/07 02:13:18;;;;;;;;;10.75;7.50;;;;;3.36;96.36;100994.28;5056731;28;11562;-72
2022/01/07 02:15:46;;;;;;;;;14.75;13.25;;;;;3.35;96.44;101002.44;5071551;28;11443;-73
2022/01/07 02:18:12;;;;;;;;;14.75;11.00;;;;;3.36;96.69;100975.53;5039563;28;11570;-72
2022/01/07 02:20:39;;;;;;;;;11.75;10.25;;;;;3.34;96.49;100963.28;5055714;28;11439;-73
2022/01/07 02:23:05;;;;;;;;;14.75;12.75;;;;;3.32;96.40;100963.44;5054353;28;11488;-73
2022/01/07 02:25:32;;;;;;;;;12.25;11.25;;;;;3.31;96.18;100959.06;5056906;28;12225;-71
2022/01/07 02:27:58;;;;;;;;;12.50;11.50;;;;;3.38;96.28;100957.50;5057544;28;11530;-72
2022/01/07 02:30:28;;;;;;;;;14.00;11.75;;;;;3.36;96.29;100956.81;5037442;28;11469;-73
2022/01/07 02:32:55;;;;;;;;;11.25;11.25;;;;;3.34;96.29;100947.25;5055507;28;11620;-71
2022/01/07 02:35:24;;;;;;;;;9.75;7.00;;;;;3.33;96.13;100941.03;5071234;28;12290;-70
2022/01/07 02:37:51;;;;;;;;;12.50;10.50;;;;;3.32;96.29;100939.34;5055184;28;11443;-72
2022/01/07 02:40:18;;;;;;;;;12.50;10.50;;;;;3.36;96.52;100934.56;5057510;28;11494;-73
2022/01/07 02:42:45;;;;;;;;;11.75;10.75;;;;;3.40;96.99;100928.78;5055326;28;11586;-68
2022/01/07 02:45:13;;;;;;;;;11.00;9.50;;;;;3.43;97.11;100937.50;5055247;28;11523;-73
2022/01/07 02:47:54;;;;;;;;;11.00;9.50;;;;;3.39;97.14;100932.44;5071648;28;11546;-71
2022/01/07 02:50:29;;;;;;;;;14.00;14.00;;;;;3.39;96.93;100934.28;5071655;28;11550;-72
2022/01/07 02:52:56;;;;;;;;;12.75;12.00;;;;;3.37;97.11;100933.56;5051337;28;12297;-73
2022/01/07 02:55:24;;;;;;;;;15.00;12.25;;;;;3.37;96.91;100925.53;5055731;28;12823;-73
2022/01/07 02:57:51;;;;;;;;;11.00;9.00;;;;;3.42;96.87;100935.81;5061762;28;11502;-71
2022/01/07 03:00:18;;;;;;;;;13.75;11.00;;;;;3.40;97.05;100928.78;5058753;28;11545;-73
2022/01/07 03:02:47;;;;;;;;;11.50;8.50;;;;;3.45;97.13;100924.84;5060245;28;11582;-71
2022/01/07 03:05:14;;;;;;;;;12.75;11.50;;;;;3.49;96.99;100923.59;5071489;28;11459;-72
2022/01/07 03:07:41;;;;;;;;;9.50;9.00;;;;;3.49;96.99;100923.59;5058015;28;11645;-73
2022/01/07 03:10:09;;;;;;;;;10.25;9.50;;;;;3.52;96.85;100918.81;5059417;28;11481;-72
2022/01/07 03:12:36;;;;;;;;;11.00;10.00;;;;;3.54;97.01;100913.31;5057106;28;11581;-69
2022/01/07 03:15:05;;;;;;;;;10.25;10.25;;;;;3.53;96.76;100911.63;5058569;28;15163;-72
2022/01/07 03:17:31;;;;;;;;;14.50;12.75;;;;;3.53;96.88;100906.25;5061190;28;11552;-70
2022/01/07 03:19:58;;;;;;;;;16.00;12.00;;;;;3.54;97.00;100897.25;5061354;28;11645;-73
2022/01/07 03:22:24;;;;;;;;;13.25;12.25;;;;;3.56;97.01;100890.75;5058212;28;11449;-71
2022/01/07 03:24:51;;;;;;;;;14.00;12.25;;;;;3.59;97.08;100892.31;5041306;28;11609;-72
2022/01/07 03:27:17;;;;;;;;;16.00;10.50;;;;;3.58;97.00;100887.94;5058457;28;11649;-72
2022/01/07 03:29:44;;;;;;;;;9.50;6.00;;;;;3.62;97.09;100886.66;5057812;28;11598;-71
2022/01/07 03:32:10;;;;;;;;;12.25;11.00;;;;;3.62;97.15;100873.28;5057030;28;11551;-72
2022/01/07 03:34:37;;;;;;;;;16.25;12.25;;;;;3.61;97.01;100879.63;5059237;28;11473;-73
2022/01/07 03:37:03;;;;;;;;;10.75;10.50;;;;;3.60;96.85;100868.06;5056890;28;11501;-72
2022/01/07 03:39:30;;;;;;;;;12.25;9.75;;;;;3.61;96.65;100876.94;5039930;28;11513;-73
2022/01/07 03:41:56;;;;;;;;;12.00;12.00;;;;;3.61;96.86;100867.06;5040436;28;11552;-71
2022/01/07 03:44:23;;;;;;;;;9.50;8.00;;;;;3.60;97.01;100861.88;5039551;28;11656;-69
2022/01/07 03:46:49;;;;;;;;;7.00;7.00;;;;;3.66;97.26;100864.81;5058763;28;11434;-70
2022/01/07 03:49:16;;;;;;;;;14.75;11.50;;;;;3.67;96.84;100868.31;5056583;28;11546;-69
2022/01/07 03:51:42;;;;;;;;;12.50;12.50;;;;;3.70;97.50;100863.53;5057338;28;11631;-71
2022/01/07 03:54:09;;;;;;;;;13.00;12.50;;;;;3.72;97.30;100847.34;5056381;28;11664;-72
2022/01/07 03:56:35;;;;;;;;;17.00;16.25;;;;;3.73;97.59;100849.03;5058230;28;11489;-72
2022/01/07 03:59:02;;;;;;;;;15.25;14.75;;;;;3.74;97.62;100840.00;5041312;28;11500;-73
2022/01/07 04:01:29;;;;;;;;;18.25;17.25;;;;;3.80;97.68;100830.53;5059021;28;11520;-73
2022/01/07 04:03:56;;;;;;;;;16.75;16.75;;;;;3.76;97.63;100830.00;5056988;28;11486;-72
2022/01/07 04:06:22;;;;;;;;;11.75;11.75;;;;;3.79;98.08;100824.34;5072122;28;12407;-73
2022/01/07 04:08:49;;;;;;;;;18.00;13.75;;;;;3.82;97.94;100831.25;5071784;28;11630;-73
2022/01/07 04:11:16;;;;;;;;;16.25;14.25;;;;;3.79;98.07;100834.22;5059516;28;11606;-71
2022/01/07 04:13:44;;;;;;;;;22.25;18.25;;;;;3.78;98.01;100827.16;5059632;28;11558;-71
2022/01/07 04:16:11;;;;;;;;;19.50;15.75;;;;;3.81;98.18;100835.75;5057725;28;12377;-73
2022/01/07 04:18:37;;;;;;;;;20.75;18.50;;;;;3.82;98.33;100825.88;5055709;28;11516;-73
2022/01/07 04:21:04;;;;;;;;;19.75;18.00;;;;;3.81;98.42;100825.03;5055953;28;11581;-73
2022/01/07 04:23:30;;;;;;;;;21.25;17.00;;;;;3.83;98.39;100815.03;5056967;28;11572;-71
2022/01/07 04:25:57;;;;;;;;;13.75;12.75;;;;;3.87;98.62;100804.88;5057825;28;11584;-72
2022/01/07 04:28:23;;;;;;;;;24.50;18.25;;;;;3.85;98.75;100810.38;5057427;28;11533;-71
2022/01/07 04:30:50;;;;;;;;;16.75;16.50;;;;;3.80;98.24;100795.75;5069932;28;11648;-73
2022/01/07 04:33:22;;;;;;;;;16.75;16.75;;;;;3.90;98.95;100804.56;5060010;28;11607;-72
2022/01/07 04:35:48;;;;;;;;;13.25;13.25;;;;;3.88;98.83;100795.84;5051565;28;11598;-73
2022/01/07 04:38:15;;;;;;;;;14.25;14.25;;;;;3.92;98.94;100797.22;5048392;28;11734;-73
2022/01/07 04:40:42;;;;;;;;;16.50;16.50;;;;;3.90;98.92;100804.56;5058458;28;11588;-72
2022/01/07 04:43:09;;;;;;;;;19.25;17.00;;;;;3.94;98.79;100814.00;5059024;28;12409;-73
2022/01/07 04:45:36;;;;;;;;;20.75;17.50;;;;;3.96;98.90;100809.31;5057540;28;11494;-71
2022/01/07 04:48:03;;;;;;;;;17.00;14.25;;;;;3.94;98.81;100814.00;5056454;28;11617;-73
2022/01/07 04:50:30;;;;;;;;;16.25;14.25;;;;;3.96;98.79;100820.88;5057780;28;11614;-72
2022/01/07 04:52:57;;;;;;;;;16.25;14.50;;;;;4.00;98.78;100816.09;5051463;28;11521;-73
2022/01/07 04:55:26;;;;;;;;;18.50;17.75;;;;;3.98;98.95;100812.72;5073521;28;11489;-76
2022/01/07 04:57:53;;;;;;;;;18.00;16.75;;;;;3.98;99.07;100810.91;5056089;28;11480;-71
2022/01/07 05:00:22;;;;;;;;;18.25;17.75;;;;;4.00;98.97;100800.88;5057457;28;11638;-73
2022/01/07 05:02:49;;;;;;;;;15.25;13.75;;;;;4.04;99.01;100809.47;5056269;28;11555;-72
2022/01/07 05:05:15;;;;;;;;;14.00;13.00;;;;;4.03;99.16;100806.94;5057248;28;11495;-72
2022/01/07 05:07:42;;;;;;;;;15.75;13.25;;;;;4.05;99.25;100807.63;5069668;28;11657;-72
2022/01/07 05:10:13;;;;;;;;;21.50;19.25;;;;;4.04;99.37;100805.94;5058146;28;11658;-72
2022/01/07 05:12:42;;;;;;;;;16.25;16.25;;;;;4.06;99.45;100798.59;5057488;28;11483;-72
2022/01/07 05:15:10;;;;;;;;;19.75;19.75;;;;;4.05;99.36;100805.78;5069920;28;11515;-72
2022/01/07 05:17:37;;;;;;;;;19.00;16.75;;;;;4.07;99.44;100811.00;5072254;28;12331;-69
2022/01/07 05:20:04;;;;;;;;;19.50;15.75;;;;;4.08;99.37;100813.53;5067039;28;11564;-71
2022/01/07 05:22:31;;;;;;;;;21.00;17.50;;;;;4.10;99.82;100816.91;5056271;28;11544;-71
2022/01/07 05:24:57;;;;;;;;;24.00;20.75;;;;;4.12;99.52;100819.41;5053873;28;11633;-73
2022/01/07 05:27:24;;;;;;;;;17.50;17.25;;;;;4.12;99.53;100812.22;5073032;28;11665;-73
2022/01/07 05:29:50;;;;;;;;;22.00;16.25;;;;;4.13;99.34;100815.75;5076501;28;11495;-73
2022/01/07 05:32:17;;;;;;;;;21.50;17.75;;;;;4.13;99.38;100813.06;5059354;28;11559;-72
2022/01/07 05:34:43;;;;;;;;;21.50;17.00;;;;;4.14;99.48;100804.88;5055738;28;11628;-71
2022/01/07 05:37:10;;;;;;;;;20.50;19.75;;;;;4.16;100.00;100810.09;5056143;28;11627;-72
2022/01/07 05:39:37;;;;;;;;;21.75;18.00;;;;;4.19;99.32;100809.78;5055762;28;11543;-68
2022/01/07 05:42:05;;;;;;;;;20.00;20.00;;;;;4.19;99.44;100797.25;5056470;28;11502;-74
2022/01/07 05:44:32;;;;;;;;;22.00;20.75;;;;;4.22;99.53;100801.47;5056261;28;11485;-74
2022/01/07 05:46:59;;;;;;;;;14.00;14.00;;;;;4.20;99.71;100808.81;5057870;28;11641;-74
2022/01/07 05:49:25;;;;;;;;;20.25;20.25;;;;;4.22;99.77;100805.00;5055866;28;11630;-71
2022/01/07 05:51:51;;;;;;;;;21.75;17.50;;;;;4.26;99.89;100808.22;5057075;28;11594;-74
2022/01/07 05:54:18;;;;;;;;;13.75;13.75;;;;;4.30;100.00;100818.50;5038396;28;11492;-73
2022/01/07 05:56:44;;;;;;;;;20.75;18.75;;;;;4.29;100.00;100807.94;5054879;28;11609;-73
2022/01/07 05:59:11;;;;;;;;;21.75;20.00;;;;;4.30;100.00;100804.25;5072570;28;11623;-73
2022/01/07 06:01:37;;;;;;;;;18.75;17.50;;;;;4.27;100.00;100797.34;5055465;28;11536;-72
2022/01/07 06:04:04;;;;;;;;;20.00;20.00;;;;;4.31;100.00;100796.06;5049185;28;11470;-71
2022/01/07 06:06:30;;;;;;;;;21.75;18.25;;;;;4.35;100.00;100795.75;5054480;28;11503;-72
2022/01/07 06:08:57;;;;;;;;;15.75;15.75;;;;;4.33;99.85;100802.09;5053251;28;11492;-73
2022/01/07 06:11:23;;;;;;;;;16.50;16.50;;;;;4.35;100.00;100791.25;5068961;28;11617;-72
2022/01/07 06:13:50;;;;;;;;;20.75;17.50;;;;;4.35;100.00;100787.72;5056824;28;12309;-72
2022/01/07 06:16:16;;;;;;;;;21.00;17.00;;;;;4.35;100.00;100783.19;5053069;28;11591;-72
2022/01/07 06:18:55;;;;;;;;;22.25;21.00;;;;;4.38;100.00;100784.72;5055005;28;11511;-70
2022/01/07 06:21:21;;;;;;;;;19.75;18.25;;;;;4.41;100.00;100776.38;5056445;28;11662;-72
2022/01/07 06:23:48;;;;;;;;;20.50;19.25;;;;;4.43;100.00;100791.31;5053551;28;11493;-72
2022/01/07 06:26:15;;;;;;;;;18.50;17.25;;;;;4.47;100.00;100787.38;5055008;28;12210;-70
2022/01/07 06:28:42;;;;;;;;;25.00;23.00;;;;;4.49;100.00;100780.03;5056938;28;11625;-68
2022/01/07 06:31:09;;;;;;;;;20.00;18.50;;;;;4.51;100.00;100795.94;5056499;28;11464;-71
2022/01/07 06:33:35;;;;;;;;;27.25;22.25;;;;;4.52;100.00;100800.31;5061582;28;12209;-69
2022/01/07 06:36:02;;;;;;;;;28.50;20.75;;;;;4.53;100.00;100800.16;5057157;28;11524;-71
2022/01/07 06:38:28;;;;;;;;;17.50;17.50;;;;;4.56;100.00;100797.19;5058025;28;11585;-72
2022/01/07 06:40:55;;;;;;;;;26.25;24.75;;;;;4.58;100.00;100792.50;5058843;28;11660;-71
2022/01/07 06:43:21;;;;;;;;;27.25;24.00;;;;;4.60;100.00;100803.06;5058434;28;11519;-69
2022/01/07 06:45:48;;;;;;;;;29.00;27.00;;;;;4.62;100.00;100799.25;5058113;28;12286;-72
2022/01/07 06:48:14;;;;;;;;;32.75;25.25;;;;;4.65;100.00;100795.41;5059582;28;11490;-71
2022/01/07 06:50:42;;;;;;;;;27.75;25.25;;;;;4.67;100.00;100796.09;5074553;28;11627;-72
2022/01/07 06:53:08;;;;;;;;;31.75;27.00;;;;;4.66;100.00;100789.06;5059119;28;11719;-72
2022/01/07 06:55:54;;;;;;;;;25.25;20.50;;;;;4.68;100.00;100805.00;5059004;28;11518;-70
2022/01/07 06:58:20;;;;;;;;;25.50;22.50;;;;;4.67;100.00;100788.06;5058695;28;11573;-70
2022/01/07 07:00:47;;;;;;;;;29.00;26.25;;;;;4.69;100.00;100786.06;5058863;28;12401;-72
2022/01/07 07:03:13;;;;;;;;;26.00;25.00;;;;;4.69;100.00;100801.31;5061609;28;11598;-73
2022/01/07 07:05:40;;;;;;;;;25.50;22.00;;;;;4.72;100.00;100799.19;5059947;28;11531;-71
2022/01/07 07:08:06;;;;;;;;;41.50;32.00;;;;;4.73;100.00;100802.72;5057817;28;11587;-72
2022/01/07 07:10:33;;;;;;;;;31.00;28.25;;;;;4.73;100.00;100794.69;5062716;28;11591;-71
2022/01/07 07:12:59;;;;;;;;;34.00;24.25;;;;;4.71;100.00;100792.16;5057497;28;11555;-72
2022/01/07 07:15:25;;;;;;;;;25.25;20.25;;;;;4.70;100.00;100785.06;5055725;28;12403;-70
2022/01/07 07:17:52;;;;;;;;;31.25;24.00;;;;;4.70;100.00;100779.69;5070951;28;11603;-69
2022/01/07 07:20:18;;;;;;;;;27.00;19.00;;;;;4.70;100.00;100776.19;5071931;28;11650;-70
2022/01/07 07:22:46;;;;;;;;;31.50;26.25;;;;;4.67;100.00;100773.81;5057010;28;11510;-71
2022/01/07 07:25:13;;;;;;;;;19.75;19.75;;;;;4.68;100.00;100770.13;5053192;28;11620;-71
2022/01/07 07:27:41;;;;;;;;;29.25;21.75;;;;;4.68;100.00;100786.22;5059658;28;11487;-72
2022/01/07 07:30:10;;;;;;;;;30.75;25.25;;;;;4.68;100.00;100780.84;5059209;28;11567;-72
2022/01/07 07:32:38;;;;;;;;;24.75;23.25;;;;;4.62;100.00;100779.63;5073893;28;11547;-71
2022/01/07 07:37:48;;;;;;;;;22.00;18.25;;;;;4.87;100.00;100784.25;5059677;28;11570;-70
2022/01/07 07:40:15;;;;;;;;;22.00;20.00;;;;;4.69;100.00;100790.59;5057802;28;11519;-72
2022/01/07 07:42:42;;;;;;;;;24.50;20.25;;;;;4.70;100.00;100794.94;5056543;28;11621;-70
2022/01/07 07:45:15;;;;;;;;;26.50;24.00;;;;;4.64;100.00;100796.41;5058114;28;11588;-72
2022/01/07 07:47:42;;;;;;;;;32.75;26.50;;;;;4.74;100.00;100791.00;5056767;28;11702;-70
2022/01/07 07:50:13;;;;;;;;;33.75;26.00;;;;;4.71;100.00;100791.28;5058988;28;11507;-72
2022/01/07 07:52:40;;;;;;;;;29.00;25.50;;;;;4.71;100.00;100786.78;5056677;28;11611;-72
2022/01/07 07:55:07;;;;;;;;;33.00;24.75;;;;;4.70;100.00;100805.69;5053863;28;12380;-73
2022/01/07 07:57:33;;;;;;;;;35.75;27.00;;;;;4.71;100.00;100802.88;5073856;28;11511;-72
2022/01/07 08:00:00;;;;;;;;;38.00;31.75;;;;;4.68;100.00;100819.25;5070952;28;11514;-70
2022/01/07 08:02:30;;;;;;;;;26.00;23.50;;;;;4.69;100.00;100836.16;5057677;28;12165;-72
2022/01/07 08:04:57;;;;;;;;;27.00;26.00;;;;;4.70;100.00;100833.34;5061274;28;11485;-73
2022/01/07 08:07:24;;;;;;;;;26.50;21.50;;;;;4.70;100.00;100830.66;5063855;28;11552;-71
2022/01/07 08:09:52;;;;;;;;;27.75;21.75;;;;;4.70;100.00;100830.66;5060995;28;11659;-73
2022/01/07 08:12:50;;;;;;;;;25.75;19.00;;;;;4.69;100.00;100818.25;5057657;28;11490;-71
2022/01/07 08:17:50;;;;;;;;;31.00;19.75;;;;;4.71;100.00;100821.66;5060288;28;11493;-72
2022/01/07 08:20:16;;;;;;;;;26.75;21.75;;;;;4.74;100.00;100815.13;5061266;28;11485;-72
2022/01/07 08:22:43;;;;;;;;;20.75;20.75;;;;;4.78;100.00;100808.47;5059253;28;11515;-72
2022/01/07 08:25:09;;;;;;;;;22.75;20.50;;;;;4.82;100.00;100816.03;5056603;28;11512;-72
2022/01/07 08:27:36;;;;;;;;;31.75;26.25;;;;;4.82;100.00;100810.69;5059888;28;11608;-72
2022/01/07 08:30:12;;;;;;;;;23.00;17.75;;;;;4.84;100.00;100802.47;5059586;28;11495;-68
2022/01/07 08:35:24;;;;;;;;;24.00;23.50;;;;;4.78;100.00;100801.25;5064281;28;11658;-69
2022/01/07 08:37:51;;;;;;;;;26.00;24.50;;;;;4.84;100.00;100802.47;5078025;28;11632;-72
2022/01/07 08:40:17;;;;;;;;;25.00;22.00;;;;;4.90;100.00;100796.50;5061232;28;11584;-73
2022/01/07 08:42:44;;;;;;;;;23.25;21.25;;;;;5.01;100.00;100798.97;5076535;28;11487;-72
2022/01/07 08:45:10;;;;;;;;;25.25;24.25;;;;;5.07;100.00;100809.06;5059664;28;11499;-72
2022/01/07 08:47:36;;;;;;;;;19.50;15.75;;;;;5.24;100.00;100807.38;5059749;28;11535;-72
2022/01/07 08:50:04;;;;;;;;;17.75;16.00;;;;;5.33;100.00;100808.28;5040652;28;11487;-72
2022/01/07 08:52:31;;;;;;;;;17.75;17.50;;;;;5.27;99.83;100807.06;5079864;28;12545;-72
2022/01/07 08:54:57;;;;;;;;;16.75;12.25;;;;;5.21;99.71;100803.16;5073819;28;12224;-70
2022/01/07 08:57:24;;;;;;;;;16.50;13.25;;;;;5.20;99.48;100803.28;5051545;28;11607;-70
2022/01/07 08:59:51;;;;;;;;;21.00;15.50;;;;;5.11;98.85;100798.88;5057713;28;11582;-69
2022/01/07 09:02:18;;;;;;;;;10.50;10.50;;;;;5.05;98.53;100797.66;5044120;28;11483;-71
2022/01/07 09:04:45;;;;;;;;;13.75;13.75;;;;;5.02;98.72;100795.28;5055808;28;11465;-69
2022/01/07 09:07:11;;;;;;;;;10.25;5.75;;;;;5.04;98.91;100797.81;5055867;28;11469;-73
2022/01/07 09:09:39;;;;;;;;;11.25;11.25;;;;;4.96;98.79;100798.59;5056650;28;11063;-70
2022/01/07 09:12:08;;;;;;;;;13.75;12.25;;;;;4.93;98.80;100805.06;5063967;28;11266;-69
2022/01/07 09:14:35;;;;;;;;;10.00;7.00;;;;;4.92;99.47;100802.56;5060307;28;12257;-70
2022/01/07 09:17:02;;;;;;;;;7.75;7.75;;;;;4.88;99.42;100810.06;5056975;28;11329;-73
2022/01/07 09:19:29;;;;;;;;;6.25;6.25;;;;;4.87;99.37;100807.53;5063428;28;11218;-71
2022/01/07 09:21:56;;;;;;;;;7.50;7.00;;;;;4.82;99.46;100804.47;5063364;28;11516;-68
2022/01/07 09:24:23;;;;;;;;;5.00;3.50;;;;;4.64;98.65;100804.44;5074098;28;11417;-69
2022/01/07 09:26:50;;;;;;;;;2.00;2.00;;;;;4.54;98.17;100798.31;5059819;28;11149;-69
2022/01/07 09:29:16;;;;;;;;;5.25;1.25;;;;;4.53;98.02;100802.00;5059392;28;11098;-71
2022/01/07 09:31:43;;;;;;;;;2.00;0.50;;;;;4.49;97.99;100801.47;5063763;28;11263;-70
2022/01/07 09:34:10;;;;;;;;;2.50;1.00;;;;;4.50;97.69;100811.19;5058989;28;11027;-72
2022/01/07 09:36:53;;;;;;;;;5.50;3.50;;;;;4.50;97.72;100824.59;5061394;28;11031;-69
2022/01/07 09:39:19;;;;;;;;;3.25;2.00;;;;;4.50;97.70;100815.72;5061737;28;11058;-69
2022/01/07 09:41:46;;;;;;;;;1.75;1.75;;;;;4.48;97.60;100815.03;5057836;28;11155;-69
2022/01/07 09:44:13;;;;;;;;;3.50;1.75;;;;;4.38;96.68;100808.84;5078688;28;11265;-71
2022/01/07 09:46:40;;;;;;;;;3.25;1.00;;;;;4.28;95.61;100816.97;5068758;28;11427;-69
2022/01/07 09:49:07;;;;;;;;;1.25;0.25;;;;;4.22;94.82;100815.72;5058088;28;11078;-70
2022/01/07 09:51:37;;;;;;;;;0.75;0.00;;;;;4.25;95.02;100812.75;5058471;28;10905;-69
2022/01/07 09:54:05;;;;;;;;;1.75;1.00;;;;;4.25;94.77;100796.66;5077719;28;11033;-72
2022/01/07 09:56:32;;;;;;;;;1.25;1.25;;;;;4.32;95.15;100800.44;5072621;28;11851;-70
2022/01/07 09:59:00;;;;;;;;;0.50;0.50;;;;;4.63;96.26;100800.09;5075663;28;11878;-70
2022/01/07 10:01:26;;;;;;;;;1.00;1.00;;;;;4.50;95.32;100807.66;5075682;28;10909;-70
2022/01/07 10:03:53;;;;;;;;;3.00;2.00;;;;;4.49;95.81;100803.31;5074806;28;10990;-69
2022/01/07 10:06:25;;;;;;;;;4.50;4.50;;;;;4.49;96.27;100798.78;5070805;28;11047;-70
2022/01/07 10:09:07;;;;;;;;;8.75;6.25;;;;;4.50;96.71;100792.44;5049632;28;11433;-69
2022/01/07 10:11:34;;;;;;;;;6.00;6.00;;;;;4.51;97.43;100782.53;5075497;28;11431;-69
2022/01/07 10:14:18;;;;;;;;;5.75;5.25;;;;;4.58;97.62;100786.31;5074404;28;11401;-70
2022/01/07 10:16:57;;;;;;;;;9.25;7.75;;;;;4.59;97.73;100783.47;5076350;28;11570;-69
2022/01/07 10:19:35;;;;;;;;;12.25;8.00;;;;;4.63;97.74;100778.63;5075304;28;11402;-69
2022/01/07 10:22:07;;;;;;;;;10.00;10.00;;;;;4.62;97.58;100780.47;5073784;28;11560;-70
2022/01/07 10:24:55;;;;;;;;;11.00;8.50;;;;;4.83;97.73;100777.50;5073624;28;11434;-70
2022/01/07 10:27:33;;;;;;;;;9.50;9.00;;;;;4.92;97.45;100779.25;5051723;28;11528;-70
2022/01/07 10:29:59;;;;;;;;;7.25;7.25;;;;;5.18;97.34;100773.09;5076851;28;11448;-70
2022/01/07 10:32:29;;;;;;;;;5.50;5.50;;;;;5.29;96.83;100780.06;5071719;28;11490;-71
2022/01/07 10:35:18;;;;;;;;;8.50;8.50;;;;;5.23;97.32;100806.53;5075158;28;11252;-71
2022/01/07 10:37:51;;;;;;;;;5.00;5.00;;;;;4.99;95.19;100781.34;5073617;28;11188;-69
2022/01/07 10:40:27;;;;;;;;;4.00;4.00;;;;;5.05;95.69;100788.75;5072607;28;10960;-71
2022/01/07 10:43:10;;;;;;;;;6.50;6.50;;;;;5.06;96.43;100783.25;5075455;28;11012;-69
2022/01/07 10:45:37;;;;;;;;;8.00;8.00;;;;;5.08;96.90;100785.75;5066282;28;11383;-70
2022/01/07 10:48:06;;;;;;;;;9.00;9.00;;;;;5.13;97.60;100778.94;5063575;28;11210;-71
2022/01/07 10:50:40;;;;;;;;;7.25;5.75;;;;;5.23;97.92;100774.34;5064178;28;11096;-70
2022/01/07 10:53:15;;;;;;;;;8.00;8.00;;;;;5.40;98.61;100771.75;5065479;28;12247;-70
2022/01/07 10:55:59;;;;;;;;;8.25;5.75;;;;;5.38;99.01;100765.69;5065508;28;11250;-69
2022/01/07 10:58:26;;;;;;;;;9.25;8.00;;;;;5.29;98.45;100767.50;5065687;28;11226;-70
2022/01/07 11:00:53;;;;;;;;;8.00;8.00;;;;;5.32;98.62;100772.53;5065955;28;11195;-71
2022/01/07 11:03:20;;;;;;;;;10.75;5.00;;;;;5.34;98.48;100770.53;5064036;28;11938;-70
2022/01/07 11:05:46;;;;;;;;;5.50;5.50;;;;;5.29;98.56;100777.38;5065908;28;11086;-69
2022/01/07 11:08:16;;;;;;;;;5.75;5.75;;;;;5.25;98.43;100780.38;5065671;28;10987;-70
2022/01/07 11:10:42;;;;;;;;;10.75;7.00;;;;;5.40;98.22;100777.97;5064125;28;10986;-71
2022/01/07 11:13:10;;;;;;;;;4.75;4.75;;;;;5.41;98.01;100774.28;5064892;28;11031;-70
2022/01/07 11:15:37;;;;;;;;;5.75;4.75;;;;;5.38;97.58;100771.06;5057849;28;10995;-70
2022/01/07 11:18:04;;;;;;;;;4.25;4.00;;;;;5.38;97.57;100768.38;5059941;28;11871;-70
2022/01/07 11:20:30;;;;;;;;;7.00;6.00;;;;;5.44;97.89;100771.28;5068610;28;11058;-69
2022/01/07 11:22:56;;;;;;;;;3.25;3.25;;;;;5.57;97.60;100768.19;5069715;28;11051;-69
2022/01/07 11:25:31;;;;;;;;;5.25;5.00;;;;;5.66;97.13;100761.00;5068175;28;10867;-71
2022/01/07 11:28:00;;;;;;;;;1.25;1.00;;;;;5.54;96.82;100755.91;5068897;28;10955;-69
2022/01/07 11:30:33;;;;;;;;;5.00;5.00;;;;;5.73;96.80;100756.69;5067498;28;10715;-70
2022/01/07 11:33:00;;;;;;;;;3.00;3.00;;;;;5.87;95.96;100746.19;5067938;28;10731;-71